createdAt,value
2016-02-22T00:00:02.067Z,992.21
2016-02-22T00:01:02.085Z,992.27
2016-02-22T00:02:02.104Z,992.28
2016-02-22T00:03:02.122Z,992.2
2016-02-22T00:04:02.140Z,992.33
2016-02-22T00:05:02.174Z,992.37
2016-02-22T00:06:02.195Z,992.3
2016-02-22T00:07:02.214Z,992.37
2016-02-22T00:08:02.231Z,992.4
2016-02-22T00:09:02.251Z,992.39
2016-02-22T00:10:02.269Z,992.42
2016-02-22T00:11:02.303Z,992.47
2016-02-22T00:12:02.320Z,992.37
2016-02-22T00:13:02.339Z,992.41
2016-02-22T00:14:02.358Z,992.45
2016-02-22T00:15:02.391Z,992.5
2016-02-22T00:16:02.399Z,992.46
2016-02-22T00:17:02.417Z,992.39
2016-02-22T00:18:02.452Z,992.42
2016-02-22T00:19:02.469Z,992.48
2016-02-22T00:20:02.488Z,992.48
2016-02-22T00:21:02.521Z,992.49
2016-02-22T00:22:02.524Z,992.42
2016-02-22T00:23:02.558Z,992.53
2016-02-22T00:24:02.577Z,992.59
2016-02-22T00:25:02.595Z,992.56
2016-02-22T00:26:02.613Z,992.6
2016-02-22T00:27:02.648Z,992.59
2016-02-22T00:28:02.665Z,992.53
2016-02-22T00:29:02.684Z,992.55
2016-02-22T00:30:02.702Z,992.55
2016-02-22T00:31:02.721Z,992.57
2016-02-22T00:32:02.754Z,992.62
2016-02-22T00:33:02.773Z,992.71
2016-02-22T00:34:02.791Z,992.64
2016-02-22T00:35:02.809Z,992.68
2016-02-22T00:36:02.828Z,992.58
2016-02-22T00:37:02.861Z,992.64
2016-02-22T00:38:02.880Z,992.61
2016-02-22T00:39:02.898Z,992.53
2016-02-22T00:40:02.917Z,992.61
2016-02-22T00:41:02.950Z,992.72
2016-02-22T00:42:02.953Z,992.44
2016-02-22T00:43:02.987Z,992.56
2016-02-22T00:44:03.006Z,992.63
2016-02-22T00:45:03.024Z,992.63
2016-02-22T00:46:03.041Z,992.72
2016-02-22T00:47:03.061Z,992.65
2016-02-22T00:48:03.094Z,992.7
2016-02-22T00:49:03.113Z,992.56
2016-02-22T00:50:03.130Z,992.63
2016-02-22T00:51:03.150Z,992.74
2016-02-22T00:52:03.183Z,992.69
2016-02-22T00:53:03.201Z,992.61
2016-02-22T00:54:03.220Z,992.66
2016-02-22T00:55:03.238Z,992.76
2016-02-22T00:56:03.257Z,992.6
2016-02-22T00:57:03.274Z,992.72
2016-02-22T00:58:03.309Z,992.66
2016-02-22T00:59:03.326Z,992.57
2016-02-22T01:00:03.346Z,992.65
2016-02-22T01:01:03.364Z,992.74
2016-02-22T01:02:03.397Z,992.71
2016-02-22T01:03:03.401Z,992.72
2016-02-22T01:04:03.435Z,992.62
2016-02-22T01:05:03.453Z,992.67
2016-02-22T01:06:03.470Z,992.75
2016-02-22T01:07:03.506Z,992.61
2016-02-22T01:08:03.523Z,992.73
2016-02-22T01:09:03.542Z,992.59
2016-02-22T01:10:03.559Z,992.59
2016-02-22T01:11:03.578Z,992.61
2016-02-22T01:12:03.611Z,992.62
2016-02-22T01:13:03.630Z,992.52
2016-02-22T01:14:03.649Z,992.59
2016-02-22T01:15:03.667Z,992.53
2016-02-22T01:16:03.685Z,992.49
2016-02-22T01:17:03.703Z,992.47
2016-02-22T01:18:03.738Z,992.39
2016-02-22T01:19:03.755Z,992.6
2016-02-22T01:20:03.774Z,992.47
2016-02-22T01:21:03.793Z,992.5
2016-02-22T01:22:03.810Z,992.35
2016-02-22T01:23:03.844Z,992.46
2016-02-22T01:24:03.863Z,992.43
2016-02-22T01:25:03.881Z,992.49
2016-02-22T01:26:03.899Z,992.39
2016-02-22T01:27:03.918Z,992.36
2016-02-22T01:28:03.952Z,992.32
2016-02-22T01:29:03.970Z,992.25
2016-02-22T01:30:03.988Z,992.27
2016-02-22T01:31:04.007Z,992.33
2016-02-22T01:32:04.025Z,992.32
2016-02-22T01:33:04.059Z,992.38
2016-02-22T01:34:04.062Z,992.31
2016-02-22T01:35:04.095Z,992.34
2016-02-22T01:36:04.114Z,992.36
2016-02-22T01:37:04.132Z,992.4
2016-02-22T01:38:04.167Z,992.36
2016-02-22T01:39:04.184Z,992.31
2016-02-22T01:40:04.203Z,992.26
2016-02-22T01:41:04.222Z,992.25
2016-02-22T01:42:04.255Z,992.21
2016-02-22T01:43:04.258Z,992.2
2016-02-22T01:44:04.292Z,992.19
2016-02-22T01:45:04.310Z,992.12
2016-02-22T01:46:04.328Z,992.15
2016-02-22T01:47:04.378Z,992.17
2016-02-22T01:48:04.366Z,992.05
2016-02-22T01:49:04.399Z,992.06
2016-02-22T01:50:04.417Z,991.96
2016-02-22T01:51:04.436Z,991.98
2016-02-22T01:52:04.454Z,991.94
2016-02-22T01:53:04.472Z,991.63
2016-02-22T01:54:04.491Z,991.75
2016-02-22T01:55:04.524Z,991.76
2016-02-22T01:56:04.543Z,991.7
2016-02-22T01:57:04.561Z,991.79
2016-02-22T01:58:04.579Z,991.87
2016-02-22T01:59:04.598Z,991.82
2016-02-22T02:00:04.632Z,991.9
2016-02-22T02:01:04.650Z,991.85
2016-02-22T02:02:04.668Z,991.85
2016-02-22T02:03:04.687Z,992.02
2016-02-22T02:04:04.705Z,991.96
2016-02-22T02:05:04.739Z,991.98
2016-02-22T02:06:04.757Z,991.74
2016-02-22T02:07:04.776Z,991.9
2016-02-22T02:08:04.794Z,992.14
2016-02-22T02:09:04.812Z,991.84
2016-02-22T02:10:04.831Z,991.86
2016-02-22T02:11:04.848Z,991.89
2016-02-22T02:12:04.883Z,991.8
2016-02-22T02:13:04.901Z,991.81
2016-02-22T02:14:04.935Z,991.77
2016-02-22T02:15:04.938Z,991.77
2016-02-22T02:16:04.986Z,991.74
2016-02-22T02:17:04.989Z,991.77
2016-02-22T02:18:05.008Z,991.81
2016-02-22T02:19:05.026Z,991.83
2016-02-22T02:20:05.044Z,991.8
2016-02-22T02:21:05.063Z,991.82
2016-02-22T02:22:05.097Z,991.84
2016-02-22T02:23:05.115Z,991.91
2016-02-22T02:24:05.134Z,991.86
2016-02-22T02:25:05.152Z,991.71
2016-02-22T02:26:05.186Z,991.88
2016-02-22T02:27:05.205Z,991.76
2016-02-22T02:28:05.254Z,991.82
2016-02-22T02:29:05.241Z,991.71
2016-02-22T02:30:05.275Z,991.78
2016-02-22T02:31:05.293Z,991.73
2016-02-22T02:32:05.296Z,991.72
2016-02-22T02:33:05.346Z,991.63
2016-02-22T02:34:05.348Z,991.9
2016-02-22T02:35:05.367Z,991.75
2016-02-22T02:36:05.385Z,991.68
2016-02-22T02:37:05.403Z,991.61
2016-02-22T02:38:05.468Z,991.65
2016-02-22T02:39:05.471Z,991.56
2016-02-22T02:40:05.473Z,991.48
2016-02-22T02:41:05.492Z,991.61
2016-02-22T02:42:05.511Z,991.67
2016-02-22T02:43:05.528Z,991.59
2016-02-22T02:44:05.562Z,991.53
2016-02-22T02:45:05.580Z,991.61
2016-02-22T02:46:05.599Z,991.7
2016-02-22T02:47:05.617Z,991.8
2016-02-22T02:48:05.635Z,991.71
2016-02-22T02:49:05.654Z,991.74
2016-02-22T02:50:05.688Z,991.61
2016-02-22T02:51:05.721Z,991.72
2016-02-22T02:52:05.740Z,991.69
2016-02-22T02:53:05.758Z,991.62
2016-02-22T02:54:05.792Z,991.7
2016-02-22T02:55:05.826Z,991.81
2016-02-22T02:56:05.813Z,991.64
2016-02-22T02:57:05.832Z,991.61
2016-02-22T02:58:05.865Z,991.74
2016-02-22T02:59:05.868Z,991.68
2016-02-22T03:00:05.902Z,991.7
2016-02-22T03:01:05.920Z,991.72
2016-02-22T03:02:05.939Z,991.79
2016-02-22T03:03:05.957Z,991.81
2016-02-22T03:04:05.976Z,991.68
2016-02-22T03:05:06.026Z,991.63
2016-02-22T03:06:06.028Z,991.69
2016-02-22T03:07:06.046Z,991.74
2016-02-22T03:08:06.065Z,991.69
2016-02-22T03:09:06.083Z,991.75
2016-02-22T03:10:06.101Z,991.71
2016-02-22T03:11:06.120Z,991.67
2016-02-22T03:12:06.153Z,991.68
2016-02-22T03:13:06.172Z,991.79
2016-02-22T03:14:06.189Z,991.78
2016-02-22T03:15:06.209Z,991.78
2016-02-22T03:16:06.227Z,991.75
2016-02-22T03:17:06.244Z,991.76
2016-02-22T03:18:06.278Z,991.71
2016-02-22T03:19:06.298Z,991.74
2016-02-22T03:20:06.316Z,991.62
2016-02-22T03:21:06.333Z,991.58
2016-02-22T03:22:06.353Z,991.58
2016-02-22T03:23:06.371Z,991.6
2016-02-22T03:24:06.404Z,991.51
2016-02-22T03:25:06.422Z,991.56
2016-02-22T03:26:06.441Z,991.52
2016-02-22T03:27:06.460Z,991.57
2016-02-22T03:28:06.477Z,991.57
2016-02-22T03:29:06.512Z,991.48
2016-02-22T03:30:06.530Z,991.53
2016-02-22T03:31:06.549Z,991.59
2016-02-22T03:32:06.566Z,991.66
2016-02-22T03:33:06.585Z,991.47
2016-02-22T03:34:06.604Z,991.62
2016-02-22T03:35:06.621Z,991.53
2016-02-22T03:36:06.656Z,991.51
2016-02-22T03:37:06.673Z,991.54
2016-02-22T03:38:06.692Z,991.49
2016-02-22T03:39:06.726Z,991.45
2016-02-22T03:40:06.729Z,991.45
2016-02-22T03:41:06.762Z,991.44
2016-02-22T03:42:06.781Z,991.44
2016-02-22T03:43:06.800Z,991.42
2016-02-22T03:44:06.817Z,991.39
2016-02-22T03:45:06.836Z,991.4
2016-02-22T03:46:06.854Z,991.44
2016-02-22T03:47:06.873Z,991.43
2016-02-22T03:48:06.906Z,991.37
2016-02-22T03:49:06.925Z,991.32
2016-02-22T03:50:06.943Z,991.37
2016-02-22T03:51:06.961Z,991.34
2016-02-22T03:52:06.980Z,991.4
2016-02-22T03:53:07.014Z,991.36
2016-02-22T03:54:07.032Z,991.35
2016-02-22T03:55:07.050Z,991.38
2016-02-22T03:56:07.069Z,991.42
2016-02-22T03:57:07.088Z,991.36
2016-02-22T03:58:07.105Z,991.43
2016-02-22T03:59:07.124Z,991.43
2016-02-22T04:00:07.142Z,991.4
2016-02-22T04:01:07.176Z,991.39
2016-02-22T04:02:07.194Z,991.27
2016-02-22T04:03:07.213Z,991.28
2016-02-22T04:04:07.231Z,991.25
2016-02-22T04:05:07.249Z,991.22
2016-02-22T04:06:07.283Z,991.25
2016-02-22T04:07:07.301Z,991.24
2016-02-22T04:08:07.320Z,991.11
2016-02-22T04:09:07.338Z,991.18
2016-02-22T04:10:07.356Z,991.2
2016-02-22T04:11:07.375Z,991.19
2016-02-22T04:12:07.393Z,991.16
2016-02-22T04:13:07.427Z,991.28
2016-02-22T04:14:07.445Z,991.31
2016-02-22T04:15:07.464Z,991.32
2016-02-22T04:16:07.482Z,991.29
2016-02-22T04:17:07.500Z,991.24
2016-02-22T04:18:07.519Z,991.29
2016-02-22T04:19:07.552Z,991.32
2016-02-22T04:20:07.570Z,991.17
2016-02-22T04:21:07.589Z,991.29
2016-02-22T04:22:07.607Z,991.37
2016-02-22T04:23:07.625Z,991.33
2016-02-22T04:24:07.644Z,991.33
2016-02-22T04:25:07.677Z,991.26
2016-02-22T04:26:07.696Z,991.33
2016-02-22T04:27:07.714Z,991.33
2016-02-22T04:28:07.732Z,991.3
2016-02-22T04:29:07.751Z,991.3
2016-02-22T04:30:07.785Z,991.36
2016-02-22T04:31:07.788Z,991.36
2016-02-22T04:32:07.821Z,991.27
2016-02-22T04:33:07.840Z,991.27
2016-02-22T04:34:07.858Z,991.35
2016-02-22T04:35:07.876Z,991.3
2016-02-22T04:36:07.895Z,991.35
2016-02-22T04:37:07.913Z,991.31
2016-02-22T04:38:07.948Z,991.26
2016-02-22T04:39:07.965Z,991.22
2016-02-22T04:40:07.984Z,991.16
2016-02-22T04:41:08.017Z,991.21
2016-02-22T04:42:08.021Z,991.23
2016-02-22T04:43:08.054Z,991.21
2016-02-22T04:44:08.072Z,991.23
2016-02-22T04:45:08.092Z,991.2
2016-02-22T04:46:08.109Z,991.27
2016-02-22T04:47:08.128Z,991.32
2016-02-22T04:48:08.145Z,991.38
2016-02-22T04:49:08.165Z,991.36
2016-02-22T04:50:08.198Z,991.33
2016-02-22T04:51:08.216Z,991.33
2016-02-22T04:52:08.235Z,991.35
2016-02-22T04:53:08.252Z,991.36
2016-02-22T04:54:08.272Z,991.3
2016-02-22T04:55:08.289Z,991.32
2016-02-22T04:56:08.308Z,991.24
2016-02-22T04:57:08.342Z,991.41
2016-02-22T04:58:08.344Z,991.36
2016-02-22T04:59:08.379Z,991.36
2016-02-22T05:00:08.396Z,991.31
2016-02-22T05:01:08.416Z,991.29
2016-02-22T05:02:08.433Z,991.31
2016-02-22T05:03:08.452Z,991.32
2016-02-22T05:04:08.471Z,991.29
2016-02-22T05:05:08.506Z,991.28
2016-02-22T05:06:08.524Z,991.31
2016-02-22T05:07:08.543Z,991.26
2016-02-22T05:08:08.561Z,991.31
2016-02-22T05:09:08.579Z,991.31
2016-02-22T05:10:08.598Z,991.37
2016-02-22T05:11:08.616Z,991.31
2016-02-22T05:12:08.650Z,991.39
2016-02-22T05:13:08.668Z,991.38
2016-02-22T05:14:08.687Z,991.33
2016-02-22T05:15:08.705Z,991.3
2016-02-22T05:16:08.723Z,991.35
2016-02-22T05:17:08.742Z,991.31
2016-02-22T05:18:08.760Z,991.3
2016-02-22T05:19:08.777Z,991.42
2016-02-22T05:20:08.811Z,991.24
2016-02-22T05:21:08.831Z,991.33
2016-02-22T05:22:08.849Z,991.31
2016-02-22T05:23:08.866Z,991.27
2016-02-22T05:24:08.886Z,991.3
2016-02-22T05:25:08.904Z,991.25
2016-02-22T05:26:08.937Z,991.23
2016-02-22T05:27:08.955Z,991.23
2016-02-22T05:28:08.975Z,991.16
2016-02-22T05:29:08.993Z,991.34
2016-02-22T05:30:09.010Z,991.34
2016-02-22T05:31:09.029Z,991.34
2016-02-22T05:32:09.048Z,991.34
2016-02-22T05:33:09.081Z,991.33
2016-02-22T05:34:09.099Z,991.27
2016-02-22T05:35:09.118Z,991.32
2016-02-22T05:36:09.137Z,991.29
2016-02-22T05:37:09.154Z,991.29
2016-02-22T05:38:09.173Z,991.23
2016-02-22T05:39:09.206Z,991.28
2016-02-22T05:40:09.225Z,991.33
2016-02-22T05:41:09.243Z,991.35
2016-02-22T05:42:09.262Z,991.23
2016-02-22T05:43:09.280Z,991.25
2016-02-22T05:44:09.298Z,991.18
2016-02-22T05:45:09.317Z,991.23
2016-02-22T05:46:09.335Z,991.17
2016-02-22T05:47:09.369Z,991.12
2016-02-22T05:48:09.387Z,991.23
2016-02-22T05:49:09.406Z,991.25
2016-02-22T05:50:09.424Z,991.14
2016-02-22T05:51:09.458Z,991.2
2016-02-22T05:52:09.461Z,991.29
2016-02-22T05:53:09.494Z,991.27
2016-02-22T05:54:09.513Z,991.31
2016-02-22T05:55:09.531Z,991.25
2016-02-22T05:56:09.550Z,991.22
2016-02-22T05:57:09.568Z,991.3
2016-02-22T05:58:09.601Z,991.23
2016-02-22T05:59:09.605Z,991.31
2016-02-22T06:00:09.638Z,991.32
2016-02-22T06:01:09.657Z,991.34
2016-02-22T06:02:09.674Z,991.29
2016-02-22T06:03:09.694Z,991.19
2016-02-22T06:04:09.712Z,991.28
2016-02-22T06:05:09.729Z,991.24
2016-02-22T06:06:09.749Z,991.26
2016-02-22T06:07:09.767Z,991.23
2016-02-22T06:08:09.800Z,991.22
2016-02-22T06:09:09.814Z,991.34
2016-02-22T06:10:09.821Z,991.27
2016-02-22T06:11:09.826Z,991.31
2016-02-22T06:12:09.831Z,991.33
2016-02-22T06:13:09.838Z,991.37
2016-02-22T06:14:09.861Z,991.38
2016-02-22T06:15:09.875Z,991.35
2016-02-22T06:16:09.888Z,991.3
2016-02-22T06:17:09.903Z,991.36
2016-02-22T06:18:09.916Z,991.29
2016-02-22T06:19:09.930Z,991.35
2016-02-22T06:20:09.948Z,991.33
2016-02-22T06:21:09.965Z,991.4
2016-02-22T06:22:09.996Z,991.33
2016-02-22T06:23:10.013Z,991.31
2016-02-22T06:24:10.047Z,991.39
2016-02-22T06:25:10.048Z,991.33
2016-02-22T06:26:10.065Z,991.39
2016-02-22T06:27:10.083Z,991.34
2016-02-22T06:28:10.101Z,991.35
2016-02-22T06:29:10.134Z,991.35
2016-02-22T06:30:10.151Z,991.35
2016-02-22T06:31:10.217Z,991.5
2016-02-22T06:32:10.188Z,991.39
2016-02-22T06:33:10.205Z,991.36
2016-02-22T06:34:10.240Z,991.48
2016-02-22T06:35:10.242Z,991.41
2016-02-22T06:36:10.276Z,991.35
2016-02-22T06:37:10.294Z,991.41
2016-02-22T06:38:10.312Z,991.48
2016-02-22T06:39:10.331Z,991.37
2016-02-22T06:40:10.349Z,991.41
2016-02-22T06:41:10.368Z,991.39
2016-02-22T06:42:10.401Z,991.4
2016-02-22T06:43:10.403Z,991.48
2016-02-22T06:44:10.438Z,991.46
2016-02-22T06:45:10.456Z,991.53
2016-02-22T06:46:10.475Z,991.56
2016-02-22T06:47:10.493Z,991.6
2016-02-22T06:48:10.512Z,991.61
2016-02-22T06:49:10.530Z,991.65
2016-02-22T06:50:10.547Z,991.6
2016-02-22T06:51:10.581Z,991.75
2016-02-22T06:52:10.601Z,991.65
2016-02-22T06:53:10.619Z,991.67
2016-02-22T06:54:10.636Z,991.69
2016-02-22T06:55:10.655Z,991.71
2016-02-22T06:56:10.674Z,991.7
2016-02-22T06:57:10.691Z,991.6
2016-02-22T06:58:10.725Z,991.76
2016-02-22T06:59:10.744Z,991.71
2016-02-22T07:00:10.763Z,991.77
2016-02-22T07:01:10.780Z,991.73
2016-02-22T07:02:10.799Z,991.66
2016-02-22T07:03:10.818Z,991.68
2016-02-22T07:04:10.851Z,991.71
2016-02-22T07:05:10.854Z,991.67
2016-02-22T07:06:10.872Z,991.55
2016-02-22T07:07:10.907Z,991.64
2016-02-22T07:08:10.924Z,991.59
2016-02-22T07:09:10.943Z,991.47
2016-02-22T07:10:10.961Z,991.53
2016-02-22T07:11:10.979Z,991.57
2016-02-22T07:12:10.998Z,991.55
2016-02-22T07:13:11.031Z,991.59
2016-02-22T07:14:11.050Z,991.53
2016-02-22T07:15:11.068Z,991.55
2016-02-22T07:16:11.087Z,991.48
2016-02-22T07:17:11.105Z,991.57
2016-02-22T07:18:11.139Z,991.56
2016-02-22T07:19:11.142Z,991.37
2016-02-22T07:20:11.175Z,991.48
2016-02-22T07:21:11.178Z,991.48
2016-02-22T07:22:11.211Z,991.45
2016-02-22T07:23:11.231Z,991.5
2016-02-22T07:24:11.249Z,991.42
2016-02-22T07:25:11.266Z,991.48
2016-02-22T07:26:11.301Z,991.53
2016-02-22T07:27:11.319Z,991.48
2016-02-22T07:28:11.338Z,991.39
2016-02-22T07:29:11.355Z,991.52
2016-02-22T07:30:11.375Z,991.64
2016-02-22T07:31:11.393Z,991.62
2016-02-22T07:32:11.410Z,991.48
2016-02-22T07:33:11.430Z,991.57
2016-02-22T07:34:11.463Z,991.66
2016-02-22T07:35:11.482Z,991.56
2016-02-22T07:36:11.499Z,991.61
2016-02-22T07:37:11.518Z,991.63
2016-02-22T07:38:11.537Z,991.55
2016-02-22T07:39:11.554Z,991.64
2016-02-22T07:40:11.573Z,991.63
2016-02-22T07:41:11.607Z,991.68
2016-02-22T07:42:11.626Z,991.64
2016-02-22T07:43:11.643Z,991.63
2016-02-22T07:44:11.662Z,991.58
2016-02-22T07:45:11.681Z,991.65
2016-02-22T07:46:11.698Z,991.51
2016-02-22T07:47:11.732Z,991.6
2016-02-22T07:48:11.751Z,991.68
2016-02-22T07:49:11.769Z,991.59
2016-02-22T07:50:11.787Z,991.7
2016-02-22T07:51:11.806Z,991.76
2016-02-22T07:52:11.825Z,991.61
2016-02-22T07:53:11.842Z,991.62
2016-02-22T07:54:11.876Z,991.66
2016-02-22T07:55:11.895Z,991.57
2016-02-22T07:56:11.913Z,991.7
2016-02-22T07:57:11.931Z,991.74
2016-02-22T07:58:11.950Z,991.68
2016-02-22T07:59:11.968Z,991.69
2016-02-22T08:00:11.986Z,991.62
2016-02-22T08:01:12.020Z,991.7
2016-02-22T08:02:12.039Z,991.6
2016-02-22T08:03:12.072Z,991.61
2016-02-22T08:04:12.074Z,991.77
2016-02-22T08:05:12.094Z,991.64
2016-02-22T08:06:12.112Z,991.68
2016-02-22T08:07:12.129Z,991.66
2016-02-22T08:08:12.164Z,991.67
2016-02-22T08:09:12.183Z,991.72
2016-02-22T08:10:12.201Z,991.67
2016-02-22T08:11:12.218Z,991.72
2016-02-22T08:12:12.238Z,991.67
2016-02-22T08:13:12.271Z,991.7
2016-02-22T08:14:12.289Z,991.71
2016-02-22T08:15:12.307Z,991.76
2016-02-22T08:16:12.326Z,991.83
2016-02-22T08:17:12.345Z,991.78
2016-02-22T08:18:12.362Z,991.84
2016-02-22T08:19:12.381Z,991.8
2016-02-22T08:20:12.400Z,991.73
2016-02-22T08:21:12.434Z,991.71
2016-02-22T08:22:12.451Z,991.6
2016-02-22T08:23:12.470Z,991.66
2016-02-22T08:24:12.489Z,991.55
2016-02-22T08:25:12.506Z,991.77
2016-02-22T08:26:12.525Z,991.58
2016-02-22T08:27:12.558Z,991.7
2016-02-22T08:28:12.577Z,991.69
2016-02-22T08:29:12.595Z,991.71
2016-02-22T08:30:12.614Z,991.66
2016-02-22T08:31:12.632Z,991.71
2016-02-22T08:32:12.650Z,991.62
2016-02-22T08:33:12.685Z,991.66
2016-02-22T08:34:12.702Z,991.65
2016-02-22T08:35:12.721Z,991.68
2016-02-22T08:36:12.739Z,991.64
2016-02-22T08:37:12.757Z,991.68
2016-02-22T08:38:12.777Z,991.66
2016-02-22T08:39:12.810Z,991.69
2016-02-22T08:40:12.829Z,991.57
2016-02-22T08:41:12.847Z,991.7
2016-02-22T08:42:12.880Z,991.56
2016-02-22T08:43:12.883Z,991.71
2016-02-22T08:44:12.918Z,991.71
2016-02-22T08:45:12.920Z,991.81
2016-02-22T08:46:12.954Z,991.57
2016-02-22T08:47:12.973Z,991.67
2016-02-22T08:48:12.990Z,991.71
2016-02-22T08:49:13.009Z,991.68
2016-02-22T08:50:13.026Z,991.58
2016-02-22T08:51:13.062Z,991.62
2016-02-22T08:52:13.079Z,991.69
2016-02-22T08:53:13.097Z,991.63
2016-02-22T08:54:13.116Z,991.76
2016-02-22T08:55:13.133Z,991.7
2016-02-22T08:56:13.153Z,991.75
2016-02-22T08:57:13.186Z,991.62
2016-02-22T08:58:13.205Z,991.75
2016-02-22T08:59:13.222Z,991.7
2016-02-22T09:00:13.242Z,991.65
2016-02-22T09:01:13.260Z,991.61
2016-02-22T09:02:13.293Z,991.63
2016-02-22T09:03:13.311Z,991.68
2016-02-22T09:04:13.330Z,991.66
2016-02-22T09:05:13.349Z,991.62
2016-02-22T09:06:13.366Z,991.68
2016-02-22T09:07:13.385Z,991.75
2016-02-22T09:08:13.419Z,991.64
2016-02-22T09:09:13.438Z,991.8
2016-02-22T09:10:13.455Z,991.74
2016-02-22T09:11:13.474Z,991.67
2016-02-22T09:12:13.493Z,991.69
2016-02-22T09:13:13.510Z,991.69
2016-02-22T09:14:13.545Z,991.57
2016-02-22T09:15:13.562Z,991.74
2016-02-22T09:16:13.581Z,991.64
2016-02-22T09:17:13.599Z,991.75
2016-02-22T09:18:13.618Z,991.63
2016-02-22T09:19:13.652Z,991.66
2016-02-22T09:20:13.670Z,991.63
2016-02-22T09:21:13.689Z,991.61
2016-02-22T09:22:13.722Z,991.62
2016-02-22T09:23:13.725Z,991.54
2016-02-22T09:24:13.743Z,991.65
2016-02-22T09:25:13.777Z,991.57
2016-02-22T09:26:13.795Z,991.66
2016-02-22T09:27:13.814Z,991.5
2016-02-22T09:28:13.833Z,991.65
2016-02-22T09:29:13.866Z,991.58
2016-02-22T09:30:13.884Z,991.6
2016-02-22T09:31:13.903Z,991.53
2016-02-22T09:32:13.921Z,991.5
2016-02-22T09:33:13.939Z,991.65
2016-02-22T09:34:13.958Z,991.55
2016-02-22T09:35:13.991Z,991.5
2016-02-22T09:36:14.010Z,991.59
2016-02-22T09:37:14.044Z,991.52
2016-02-22T09:38:14.047Z,991.74
2016-02-22T09:39:14.065Z,991.65
2016-02-22T09:40:14.083Z,991.67
2016-02-22T09:41:14.102Z,991.56
2016-02-22T09:42:14.135Z,991.65
2016-02-22T09:43:14.154Z,991.67
2016-02-22T09:44:14.171Z,991.65
2016-02-22T09:45:14.191Z,991.62
2016-02-22T09:46:14.224Z,991.8
2016-02-22T09:47:14.242Z,991.74
2016-02-22T09:48:14.261Z,991.76
2016-02-22T09:49:14.279Z,991.82
2016-02-22T09:50:14.298Z,991.84
2016-02-22T09:51:14.315Z,991.82
2016-02-22T09:52:14.351Z,991.79
2016-02-22T09:53:14.367Z,991.82
2016-02-22T09:54:14.387Z,991.9
2016-02-22T09:55:14.405Z,991.82
2016-02-22T09:56:14.453Z,991.8
2016-02-22T09:57:14.457Z,991.83
2016-02-22T09:58:14.476Z,991.92
2016-02-22T09:59:14.494Z,991.92
2016-02-22T10:00:14.512Z,991.92
2016-02-22T10:01:14.530Z,992.04
2016-02-22T10:02:14.564Z,991.91
2016-02-22T10:03:14.583Z,991.96
2016-02-22T10:04:14.600Z,991.93
2016-02-22T10:05:14.619Z,991.9
2016-02-22T10:06:14.638Z,991.95
2016-02-22T10:07:14.671Z,991.97
2016-02-22T10:08:14.705Z,991.93
2016-02-22T10:09:14.707Z,991.94
2016-02-22T10:10:14.741Z,991.92
2016-02-22T10:11:14.744Z,991.96
2016-02-22T10:12:14.763Z,991.97
2016-02-22T10:13:14.796Z,992.05
2016-02-22T10:14:14.816Z,992.03
2016-02-22T10:15:14.834Z,992.06
2016-02-22T10:16:14.851Z,992.11
2016-02-22T10:17:14.871Z,992.08
2016-02-22T10:18:14.904Z,991.92
2016-02-22T10:19:14.923Z,992.09
2016-02-22T10:20:14.940Z,992.09
2016-02-22T10:21:14.959Z,992.13
2016-02-22T10:22:14.978Z,992.09
2016-02-22T10:23:15.012Z,992.13
2016-02-22T10:24:15.029Z,992.08
2016-02-22T10:25:15.048Z,992
2016-02-22T10:26:15.067Z,991.97
2016-02-22T10:27:15.084Z,992.25
2016-02-22T10:28:15.119Z,992.04
2016-02-22T10:29:15.136Z,992.09
2016-02-22T10:30:15.155Z,992.17
2016-02-22T10:31:15.173Z,991.96
2016-02-22T10:32:15.192Z,992.11
2016-02-22T10:33:15.225Z,992.11
2016-02-22T10:34:15.244Z,992.08
2016-02-22T10:35:15.263Z,992.05
2016-02-22T10:36:15.280Z,992.05
2016-02-22T10:37:15.314Z,992.07
2016-02-22T10:38:15.333Z,992.08
2016-02-22T10:39:15.352Z,992.08
2016-02-22T10:40:15.369Z,992.07
2016-02-22T10:41:15.388Z,992.1
2016-02-22T10:42:15.421Z,992.15
2016-02-22T10:43:15.440Z,992.09
2016-02-22T10:44:15.458Z,992.04
2016-02-22T10:45:15.477Z,992.11
2016-02-22T10:46:15.495Z,992.02
2016-02-22T10:47:15.513Z,992.01
2016-02-22T10:48:15.548Z,992.01
2016-02-22T10:49:15.565Z,992.09
2016-02-22T10:50:15.584Z,992.06
2016-02-22T10:51:15.618Z,992.09
2016-02-22T10:52:15.637Z,992.03
2016-02-22T10:53:15.654Z,992.09
2016-02-22T10:54:15.673Z,992.15
2016-02-22T10:55:15.692Z,992.1
2016-02-22T10:56:15.709Z,992.07
2016-02-22T10:57:15.728Z,991.99
2016-02-22T10:58:15.762Z,991.94
2016-02-22T10:59:15.781Z,992.03
2016-02-22T11:00:15.798Z,991.93
2016-02-22T11:01:15.817Z,992.01
2016-02-22T11:02:15.850Z,992
2016-02-22T11:03:15.869Z,992.03
2016-02-22T11:04:15.887Z,991.82
2016-02-22T11:05:15.906Z,991.79
2016-02-22T11:06:15.939Z,991.98
2016-02-22T11:07:15.958Z,991.87
2016-02-22T11:08:15.976Z,991.84
2016-02-22T11:09:15.994Z,991.88
2016-02-22T11:10:16.028Z,991.95
2016-02-22T11:11:16.046Z,991.79
2016-02-22T11:12:16.065Z,991.77
2016-02-22T11:13:16.083Z,991.87
2016-02-22T11:14:16.461Z,991.77
2016-02-22T11:15:16.120Z,991.71
2016-02-22T11:16:16.154Z,991.86
2016-02-22T11:17:16.171Z,991.94
2016-02-22T11:18:16.191Z,991.92
2016-02-22T11:19:16.209Z,991.98
2016-02-22T11:20:16.243Z,991.89
2016-02-22T11:21:16.261Z,991.99
2016-02-22T11:22:16.279Z,991.9
2016-02-22T11:23:16.313Z,991.99
2016-02-22T11:24:16.332Z,992
2016-02-22T11:25:16.350Z,991.96
2016-02-22T11:26:16.384Z,992.05
2016-02-22T11:27:16.387Z,991.99
2016-02-22T11:28:16.420Z,991.96
2016-02-22T11:29:16.439Z,991.94
2016-02-22T11:30:16.456Z,991.96
2016-02-22T11:31:16.476Z,991.93
2016-02-22T11:32:16.494Z,992
2016-02-22T11:33:16.528Z,991.93
2016-02-22T11:34:16.546Z,991.87
2016-02-22T11:35:16.564Z,991.92
2016-02-22T11:36:16.598Z,991.92
2016-02-22T11:37:16.616Z,991.86
2016-02-22T11:38:16.635Z,991.81
2016-02-22T11:39:16.653Z,991.94
2016-02-22T11:40:16.672Z,991.9
2016-02-22T11:41:16.705Z,991.84
2016-02-22T11:42:16.724Z,991.75
2016-02-22T11:43:16.757Z,991.76
2016-02-22T11:44:16.761Z,991.79
2016-02-22T11:45:16.794Z,991.81
2016-02-22T11:46:16.813Z,991.76
2016-02-22T11:47:16.831Z,991.76
2016-02-22T11:48:16.849Z,991.76
2016-02-22T11:49:16.868Z,991.81
2016-02-22T11:50:16.902Z,991.86
2016-02-22T11:51:16.920Z,991.7
2016-02-22T11:52:16.937Z,991.77
2016-02-22T11:53:16.957Z,991.7
2016-02-22T11:54:16.990Z,991.81
2016-02-22T11:55:17.009Z,991.76
2016-02-22T11:56:17.026Z,991.74
2016-02-22T11:57:17.046Z,991.78
2016-02-22T11:58:17.064Z,991.74
2016-02-22T11:59:17.098Z,991.75
2016-02-22T12:00:17.116Z,991.73
2016-02-22T12:01:17.134Z,991.76
2016-02-22T12:02:17.153Z,991.74
2016-02-22T12:03:17.186Z,991.71
2016-02-22T12:04:17.205Z,991.78
2016-02-22T12:05:17.222Z,991.69
2016-02-22T12:06:17.242Z,991.67
2016-02-22T12:07:17.275Z,991.62
2016-02-22T12:08:17.294Z,991.65
2016-02-22T12:09:17.311Z,991.75
2016-02-22T12:10:17.347Z,991.66
2016-02-22T12:11:17.364Z,991.64
2016-02-22T12:12:17.383Z,991.62
2016-02-22T12:13:17.401Z,991.56
2016-02-22T12:14:17.418Z,991.63
2016-02-22T12:15:17.438Z,991.67
2016-02-22T12:16:17.472Z,991.68
2016-02-22T12:17:17.490Z,991.59
2016-02-22T12:18:17.507Z,991.65
2016-02-22T12:19:17.527Z,991.58
2016-02-22T12:20:17.560Z,991.65
2016-02-22T12:21:17.579Z,991.62
2016-02-22T12:22:17.612Z,991.65
2016-02-22T12:23:17.616Z,991.65
2016-02-22T12:24:17.649Z,991.68
2016-02-22T12:25:17.668Z,991.75
2016-02-22T12:26:17.686Z,991.65
2016-02-22T12:27:17.719Z,991.66
2016-02-22T12:28:17.723Z,991.66
2016-02-22T12:29:17.757Z,991.7
2016-02-22T12:30:17.775Z,991.8
2016-02-22T12:31:17.792Z,991.78